White Water, California
Current Conditions -  °F | °C
As of 9:53 AM on Monday 22 Dec 2014 (Local Time) from KPSP Reporting Station
Clear Clear  
Wind Chill: 65°   Ceiling: Unl
Heat Index: 65°   Visibility: 10mi
Dew Point: 45°   Wind: 3mph
Humidity: 48%   Direction: 180°S
Pressure: 30.05"   Gusts: NA
Location:  33.9276°N, 116.6932°W
Report Text: KPSP 221753Z 18003KT 10SM CLR 18/07 A3005 RMK AO2 SLP176 T01830072 10183 20089 53000
Loading
Personal Weather Stations






























Interactive Weather Map New forecast layout! Learn more

10-Day Weather Forecast

Advertisements
Track Severe Weather on mobile